Main page
METAR-TAF:

METAR-TAF

Airports :

Cervia Air Base

Cervia, Italy

latitude: 44-13N, longitude: 012-18E, elevation: 6 m

Current weather observation

The report was made 24 minutes ago, at 19:55 UTC
Wind 4 kt from the West/Southwest
Temperature 13°C
Humidity 88%
Pressure 1022 hPa
Visibility: 1500 m
mist

METAR: LIPC 201955Z 25004KT 1500 BR NSC 13/11 Q1022 RMK SKC VIS MIN 1500 WIND THR11 25003KT WIND THR29 25003KT AMB

Time: 22:19 (20:19 UTC)

Forecast

The report was made 3 hours and 19 minutes ago, at 17:00 UTC
Forecast valid from 20 at 18 UTC to 21 at 03 UTC
Wind 3 kt from variable directions
Visibility: 3000 m
Becoming
from 20 at 21 UTC to 20 at 23 UTC
Visibility: 2000 m

TAF: LIPC 201700Z 2018/2103 VRB03KT 3000 NSC BECMG 2021/2023 2000 B

Weather observations and forecasts of more than 4000 airports (METAR and TAF reports).

The available stations are represented by yellow and red dots on the map.

Hover mouse over dot to see the name of the station.

Then click to see weather observations and forecasts.

To change the map : click on the green buttons with a black cross to zoom in, on the green button with a dash to zoom out, or on the green arrows for adjacent maps.


METAR-TAF: